createdAt,value
2022-11-05T00:02:22.960Z,7.47
2022-11-05T00:05:07.866Z,7.46
2022-11-05T00:08:06.511Z,7.41
2022-11-05T00:10:36.573Z,7.37
2022-11-05T00:13:22.279Z,7.38
2022-11-05T00:16:07.004Z,7.35
2022-11-05T00:18:33.369Z,7.17
2022-11-05T00:20:59.707Z,7.18
2022-11-05T00:23:44.702Z,7.18
2022-11-05T00:26:11.545Z,7.16
2022-11-05T00:28:40.719Z,7.22
2022-11-05T00:31:14.228Z,7.20
2022-11-05T00:33:42.990Z,7.06
2022-11-05T00:36:10.943Z,7.09
2022-11-05T00:38:37.422Z,7.11
2022-11-05T00:41:04.613Z,7.17
2022-11-05T00:43:49.769Z,7.11
2022-11-05T00:46:16.125Z,7.23
2022-11-05T00:49:01.379Z,7.35
2022-11-05T00:51:27.795Z,7.40
2022-11-05T00:53:54.193Z,7.41
2022-11-05T00:56:20.666Z,7.41
2022-11-05T00:58:47.036Z,7.41
2022-11-05T01:01:13.480Z,7.41
2022-11-05T01:03:40.736Z,7.52
2022-11-05T01:06:09.463Z,7.62
2022-11-05T01:08:36.310Z,7.67
2022-11-05T01:11:10.084Z,7.57
2022-11-05T01:13:37.309Z,7.67
2022-11-05T01:16:09.784Z,7.57
2022-11-05T01:18:38.876Z,7.70
2022-11-05T01:21:15.802Z,7.62
2022-11-05T01:23:42.245Z,7.61
2022-11-05T01:26:09.081Z,7.52
2022-11-05T01:28:35.557Z,7.49
2022-11-05T01:31:02.024Z,7.41
2022-11-05T01:33:28.444Z,7.35
2022-11-05T01:35:54.837Z,7.33
2022-11-05T01:38:21.326Z,7.24
2022-11-05T01:40:47.743Z,7.23
2022-11-05T01:43:23.999Z,7.08
2022-11-05T01:45:57.477Z,7.07
2022-11-05T01:48:35.096Z,7.11
2022-11-05T01:51:07.083Z,7.11
2022-11-05T01:53:38.496Z,7.14
2022-11-05T01:56:10.879Z,7.10
2022-11-05T01:58:48.858Z,6.96
2022-11-05T02:01:16.211Z,6.96
2022-11-05T02:03:44.492Z,6.95
2022-11-05T02:06:11.817Z,6.95
2022-11-05T02:08:53.611Z,7.04
2022-11-05T02:11:20.581Z,7.30
2022-11-05T02:13:48.805Z,7.48
2022-11-05T02:16:33.304Z,7.61
2022-11-05T02:19:32.931Z,7.66
2022-11-05T02:22:21.154Z,7.78
2022-11-05T02:25:00.253Z,7.83
2022-11-05T02:27:50.556Z,7.88
2022-11-05T02:30:53.716Z,7.93
2022-11-05T02:33:38.680Z,7.87
2022-11-05T02:36:10.900Z,7.85
2022-11-05T02:38:50.555Z,7.83
2022-11-05T02:41:35.656Z,7.81
2022-11-05T02:44:24.009Z,7.80
2022-11-05T02:46:59.209Z,7.84
2022-11-05T02:49:47.795Z,7.80
2022-11-05T02:52:21.490Z,7.78
2022-11-05T02:55:11.776Z,7.75
2022-11-05T02:57:44.678Z,7.76
2022-11-05T03:00:39.441Z,7.76
2022-11-05T03:03:12.240Z,7.64
2022-11-05T03:06:34.657Z,7.78
2022-11-05T03:09:38.619Z,7.74
2022-11-05T03:12:26.635Z,7.71
2022-11-05T03:15:07.975Z,7.66
2022-11-05T03:18:02.261Z,7.60
2022-11-05T03:20:43.542Z,7.66
2022-11-05T03:23:25.417Z,7.65
2022-11-05T03:26:04.256Z,7.67
2022-11-05T03:28:34.642Z,7.69
2022-11-05T03:31:02.318Z,7.72
2022-11-05T03:33:33.750Z,7.65
2022-11-05T03:36:05.708Z,7.52
2022-11-05T03:38:36.368Z,7.55
2022-11-05T03:41:10.150Z,7.61
2022-11-05T03:43:41.981Z,7.57
2022-11-05T03:46:15.507Z,7.59
2022-11-05T03:48:47.250Z,7.64
2022-11-05T03:51:23.341Z,7.62
2022-11-05T03:53:55.528Z,7.62
2022-11-05T03:56:49.019Z,7.65
2022-11-05T03:59:16.986Z,7.66
2022-11-05T04:01:44.105Z,7.66
2022-11-05T04:04:10.553Z,7.64
2022-11-05T04:06:55.640Z,7.68
2022-11-05T04:09:42.442Z,7.59
2022-11-05T04:12:29.317Z,7.59
2022-11-05T04:14:55.740Z,7.58
2022-11-05T04:17:22.199Z,7.54
2022-11-05T04:20:07.253Z,7.55
2022-11-05T04:22:54.020Z,7.58
2022-11-05T04:25:22.026Z,7.61
2022-11-05T04:27:48.631Z,7.62
2022-11-05T04:30:20.285Z,7.64
2022-11-05T04:32:56.580Z,7.65
2022-11-05T04:35:23.054Z,7.64
2022-11-05T04:37:49.828Z,7.70
2022-11-05T04:40:16.243Z,7.67
2022-11-05T04:42:42.588Z,7.68
2022-11-05T04:45:09.046Z,7.64
2022-11-05T04:47:35.410Z,7.71
2022-11-05T04:50:02.079Z,7.73
2022-11-05T04:52:28.759Z,7.73
2022-11-05T04:54:55.186Z,7.72
2022-11-05T04:57:21.559Z,7.72
2022-11-05T04:59:49.520Z,7.67
2022-11-05T05:02:16.041Z,7.70
2022-11-05T05:04:42.488Z,7.67
2022-11-05T05:07:08.844Z,7.61
2022-11-05T05:09:35.372Z,7.62
2022-11-05T05:12:02.577Z,7.59
2022-11-05T05:14:29.068Z,7.60
2022-11-05T05:16:55.468Z,7.53
2022-11-05T05:19:23.612Z,7.54
2022-11-05T05:21:49.975Z,7.52
2022-11-05T05:24:19.021Z,7.40
2022-11-05T05:26:50.920Z,7.38
2022-11-05T05:29:18.132Z,7.44
2022-11-05T05:31:45.120Z,7.43
2022-11-05T05:34:13.383Z,7.40
2022-11-05T05:36:40.295Z,7.47
2022-11-05T05:39:08.526Z,7.47
2022-11-05T05:41:34.892Z,7.40
2022-11-05T05:44:01.422Z,7.45
2022-11-05T05:46:27.884Z,7.41
2022-11-05T05:48:54.363Z,7.43
2022-11-05T05:51:20.774Z,7.40
2022-11-05T05:53:47.234Z,7.44
2022-11-05T05:56:19.296Z,7.41
2022-11-05T05:58:46.022Z,7.40
2022-11-05T06:01:19.401Z,7.32
2022-11-05T06:03:47.438Z,7.36
2022-11-05T06:06:15.401Z,7.25
2022-11-05T06:08:42.493Z,7.32
2022-11-05T06:11:09.375Z,7.29
2022-11-05T06:13:36.443Z,7.25
2022-11-05T06:16:08.326Z,7.25
2022-11-05T06:18:35.010Z,7.29
2022-11-05T06:21:07.225Z,7.34
2022-11-05T06:23:35.237Z,7.31
2022-11-05T06:26:06.438Z,7.35
2022-11-05T06:28:33.609Z,7.36
2022-11-05T06:31:00.659Z,7.38
2022-11-05T06:33:27.697Z,7.42
2022-11-05T06:35:54.881Z,7.45
2022-11-05T06:38:21.248Z,7.47
2022-11-05T06:40:47.739Z,7.46
2022-11-05T06:43:14.471Z,7.44
2022-11-05T06:45:41.104Z,7.46
2022-11-05T06:48:07.631Z,7.40
2022-11-05T06:50:34.005Z,7.49
2022-11-05T06:53:02.464Z,7.53
2022-11-05T06:55:30.721Z,7.50
2022-11-05T06:57:57.435Z,7.57
2022-11-05T07:00:24.352Z,7.51
2022-11-05T07:02:50.868Z,7.58
2022-11-05T07:05:17.663Z,7.57
2022-11-05T07:07:45.449Z,7.61
2022-11-05T07:10:15.373Z,7.60
2022-11-05T07:12:42.181Z,7.59
2022-11-05T07:15:09.883Z,7.59
2022-11-05T07:17:36.292Z,7.60
2022-11-05T07:20:03.841Z,7.55
2022-11-05T07:22:30.304Z,7.59
2022-11-05T07:24:56.676Z,7.55
2022-11-05T07:27:23.222Z,7.59
2022-11-05T07:29:49.642Z,7.58
2022-11-05T07:32:16.144Z,7.59
2022-11-05T07:34:43.834Z,7.60
2022-11-05T07:37:10.312Z,7.62
2022-11-05T07:39:36.705Z,7.71
2022-11-05T07:42:03.448Z,7.73
2022-11-05T07:44:29.918Z,7.82
2022-11-05T07:46:56.332Z,7.88
2022-11-05T07:49:23.783Z,7.90
2022-11-05T07:51:50.201Z,7.98
2022-11-05T07:54:16.605Z,7.98
2022-11-05T07:56:42.971Z,8.04
2022-11-05T07:59:09.367Z,8.05
2022-11-05T08:01:35.836Z,8.08
2022-11-05T08:04:02.400Z,8.10
2022-11-05T08:06:28.781Z,8.16
2022-11-05T08:08:55.176Z,8.18
2022-11-05T08:11:21.686Z,8.20
2022-11-05T08:13:48.108Z,8.23
2022-11-05T08:16:15.495Z,8.32
2022-11-05T08:18:41.950Z,8.37
2022-11-05T08:21:09.525Z,8.40
2022-11-05T08:23:36.068Z,8.41
2022-11-05T08:26:03.833Z,8.51
2022-11-05T08:28:30.555Z,8.57
2022-11-05T08:30:57.791Z,8.63
2022-11-05T08:33:25.175Z,8.61
2022-11-05T08:35:51.867Z,8.65
2022-11-05T08:38:19.637Z,8.60
2022-11-05T08:40:55.054Z,8.54
2022-11-05T08:43:22.202Z,8.63
2022-11-05T08:45:48.936Z,8.69
2022-11-05T08:48:17.561Z,8.74
2022-11-05T08:50:45.788Z,8.74
2022-11-05T08:53:13.528Z,8.74
2022-11-05T08:55:41.774Z,8.82
2022-11-05T08:58:16.060Z,8.93
2022-11-05T09:00:45.605Z,9.09
2022-11-05T09:03:12.539Z,9.10
2022-11-05T09:05:40.164Z,9.11
2022-11-05T09:08:12.748Z,9.29
2022-11-05T09:10:40.709Z,9.36
2022-11-05T09:13:09.640Z,9.29
2022-11-05T09:15:41.123Z,9.24
2022-11-05T09:18:11.691Z,9.20
2022-11-05T09:20:39.814Z,9.11
2022-11-05T09:23:11.003Z,9.05
2022-11-05T09:25:37.757Z,9.07
2022-11-05T09:28:16.412Z,9.07
2022-11-05T09:30:48.832Z,9.07
2022-11-05T09:33:18.454Z,9.12
2022-11-05T09:35:46.031Z,9.19
2022-11-05T09:38:12.892Z,9.41
2022-11-05T09:41:00.619Z,9.87
2022-11-05T09:43:55.978Z,9.93
2022-11-05T09:46:25.506Z,9.75
2022-11-05T09:49:05.273Z,9.54
2022-11-05T09:51:33.086Z,9.42
2022-11-05T09:54:01.020Z,9.29
2022-11-05T09:56:30.815Z,9.33
2022-11-05T09:59:08.815Z,9.29
2022-11-05T10:01:37.842Z,9.24
2022-11-05T10:04:12.647Z,9.25
2022-11-05T10:06:48.373Z,9.28
2022-11-05T10:09:27.930Z,9.30
2022-11-05T10:12:19.130Z,9.37
2022-11-05T10:15:05.926Z,9.52
2022-11-05T10:17:39.042Z,9.62
2022-11-05T10:20:09.737Z,9.81
2022-11-05T10:22:37.093Z,9.97
2022-11-05T10:25:16.062Z,10.27
2022-11-05T10:27:47.941Z,10.58
2022-11-05T10:30:15.170Z,10.88
2022-11-05T10:32:44.229Z,11.06
2022-11-05T10:35:18.436Z,11.21
2022-11-05T10:37:50.472Z,11.53
2022-11-05T10:40:35.660Z,11.65
2022-11-05T10:43:07.284Z,11.67
2022-11-05T10:45:47.562Z,11.81
2022-11-05T10:48:24.763Z,12.44
2022-11-05T10:50:51.184Z,12.52
2022-11-05T10:53:27.477Z,12.45
2022-11-05T10:55:54.617Z,12.25
2022-11-05T10:58:26.794Z,12.47
2022-11-05T11:00:53.447Z,13.11
2022-11-05T11:03:49.006Z,13.65
2022-11-05T11:06:29.679Z,14.26
2022-11-05T11:08:58.391Z,14.21
2022-11-05T11:11:28.995Z,13.87
2022-11-05T11:14:01.346Z,13.52
2022-11-05T11:16:33.401Z,13.25
2022-11-05T11:19:03.036Z,13.54
2022-11-05T11:21:31.450Z,13.62
2022-11-05T11:24:03.246Z,13.72
2022-11-05T11:26:36.329Z,14.09
2022-11-05T11:29:14.239Z,14.18
2022-11-05T11:31:41.892Z,14.32
2022-11-05T11:34:23.692Z,13.69
2022-11-05T11:36:54.023Z,12.93
2022-11-05T11:39:25.913Z,12.33
2022-11-05T11:41:57.404Z,12.20
2022-11-05T11:44:30.503Z,11.96
2022-11-05T11:47:02.058Z,11.75
2022-11-05T11:49:49.208Z,11.63
2022-11-05T11:52:19.461Z,11.61
2022-11-05T11:54:45.882Z,11.58
2022-11-05T11:57:24.976Z,11.40
2022-11-05T12:00:08.396Z,11.42
2022-11-05T12:02:58.848Z,11.38
2022-11-05T12:05:56.094Z,11.33
2022-11-05T12:08:45.312Z,11.24
2022-11-05T12:11:30.716Z,11.27
2022-11-05T12:14:46.244Z,11.15
2022-11-05T12:17:32.815Z,11.15
2022-11-05T12:20:24.320Z,11.19
2022-11-05T12:23:13.273Z,11.21
2022-11-05T12:25:53.639Z,11.14
2022-11-05T12:29:19.828Z,11.07
2022-11-05T12:32:16.468Z,11.09
2022-11-05T12:35:04.079Z,11.13
2022-11-05T12:38:02.894Z,11.06
2022-11-05T12:40:35.269Z,11.03
2022-11-05T12:43:12.078Z,11.02
2022-11-05T12:45:41.345Z,11.05
2022-11-05T12:48:29.249Z,10.98
2022-11-05T12:51:05.160Z,11.06
2022-11-05T12:54:07.589Z,11.04
2022-11-05T12:56:48.049Z,11.16
2022-11-05T12:59:20.391Z,11.12
2022-11-05T13:01:54.274Z,11.08
2022-11-05T13:04:34.148Z,11.04
2022-11-05T13:07:05.269Z,11.12
2022-11-05T13:09:42.546Z,11.16
2022-11-05T13:12:14.591Z,11.17
2022-11-05T13:14:47.399Z,11.22
2022-11-05T13:17:24.255Z,11.21
2022-11-05T13:20:17.944Z,11.22
2022-11-05T13:22:50.745Z,11.20
2022-11-05T13:25:21.453Z,11.18
2022-11-05T13:27:53.525Z,11.14
2022-11-05T13:30:23.541Z,11.14
2022-11-05T13:33:10.720Z,11.06
2022-11-05T13:35:44.006Z,11.04
2022-11-05T13:38:39.251Z,11.08
2022-11-05T13:41:27.302Z,11.07
2022-11-05T13:44:10.293Z,11.05
2022-11-05T13:47:11.897Z,11.02
2022-11-05T13:49:38.280Z,11.00
2022-11-05T13:52:25.658Z,10.93
2022-11-05T13:55:01.157Z,10.90
2022-11-05T13:58:02.812Z,10.85
2022-11-05T14:00:36.990Z,10.85
2022-11-05T14:03:16.782Z,10.84
2022-11-05T14:05:43.547Z,10.76
2022-11-05T14:08:21.177Z,10.75
2022-11-05T14:11:19.738Z,10.73
2022-11-05T14:13:50.222Z,10.72
2022-11-05T14:16:19.289Z,10.74
2022-11-05T14:18:53.612Z,10.74
2022-11-05T14:21:25.808Z,10.72
2022-11-05T14:23:58.145Z,10.55
2022-11-05T14:26:34.996Z,10.46
2022-11-05T14:29:04.442Z,10.67
2022-11-05T14:32:08.429Z,10.66
2022-11-05T14:35:04.215Z,10.63
2022-11-05T14:37:36.814Z,10.62
2022-11-05T14:40:28.917Z,10.56
2022-11-05T14:42:58.916Z,10.60
2022-11-05T14:45:28.189Z,10.63
2022-11-05T14:47:58.135Z,10.58
2022-11-05T14:50:31.613Z,10.58
2022-11-05T14:53:04.645Z,10.57
2022-11-05T14:55:40.078Z,10.52
2022-11-05T14:58:27.070Z,10.41
2022-11-05T15:00:54.320Z,10.39
2022-11-05T15:03:28.956Z,10.40
2022-11-05T15:06:22.114Z,10.37
2022-11-05T15:08:48.567Z,10.34
2022-11-05T15:11:21.726Z,10.34
2022-11-05T15:14:03.433Z,10.31
2022-11-05T15:16:35.013Z,10.28
2022-11-05T15:19:03.106Z,10.24
2022-11-05T15:21:34.380Z,10.18
2022-11-05T15:24:03.750Z,10.20
2022-11-05T15:26:52.849Z,10.20
2022-11-05T15:29:24.695Z,10.16
2022-11-05T15:31:51.669Z,10.16
2022-11-05T15:34:31.910Z,10.19
2022-11-05T15:37:10.467Z,10.17
2022-11-05T15:39:48.168Z,10.07
2022-11-05T15:42:18.879Z,10.15
2022-11-05T15:44:47.483Z,10.11
2022-11-05T15:47:15.813Z,10.16
2022-11-05T15:49:45.116Z,10.08
2022-11-05T15:52:17.292Z,10.09
2022-11-05T15:54:44.173Z,10.09
2022-11-05T15:57:29.713Z,10.05
2022-11-05T15:59:56.166Z,10.06
2022-11-05T16:02:29.683Z,10.08
2022-11-05T16:04:57.593Z,10.09
2022-11-05T16:07:24.659Z,10.13
2022-11-05T16:09:58.509Z,10.12
2022-11-05T16:12:32.176Z,10.08
2022-11-05T16:15:04.923Z,10.05
2022-11-05T16:17:53.356Z,9.99
2022-11-05T16:20:23.285Z,10.02
2022-11-05T16:22:58.801Z,9.98
2022-11-05T16:25:30.434Z,10.00
2022-11-05T16:27:58.571Z,10.03
2022-11-05T16:30:25.605Z,9.95
2022-11-05T16:32:52.715Z,9.98
2022-11-05T16:35:25.329Z,9.96
2022-11-05T16:37:52.762Z,9.99
2022-11-05T16:40:21.804Z,10.00
2022-11-05T16:42:51.355Z,9.94
2022-11-05T16:45:20.799Z,9.96
2022-11-05T16:47:47.662Z,9.93
2022-11-05T16:50:26.615Z,9.97
2022-11-05T16:52:53.181Z,9.97
2022-11-05T16:55:20.302Z,9.95
2022-11-05T16:57:51.589Z,9.90
2022-11-05T17:00:20.105Z,9.91
2022-11-05T17:02:47.107Z,9.89
2022-11-05T17:05:28.856Z,9.89
2022-11-05T17:07:56.332Z,9.87
2022-11-05T17:10:24.942Z,9.89
2022-11-05T17:12:51.726Z,9.85
2022-11-05T17:15:29.499Z,9.89
2022-11-05T17:17:56.817Z,9.90
2022-11-05T17:20:41.116Z,9.85
2022-11-05T17:23:16.986Z,9.90
2022-11-05T17:25:46.713Z,9.86
2022-11-05T17:28:14.278Z,9.87
2022-11-05T17:30:41.889Z,9.91
2022-11-05T17:33:11.160Z,9.92
2022-11-05T17:35:39.876Z,9.88
2022-11-05T17:38:06.307Z,9.86
2022-11-05T17:40:34.545Z,9.87
2022-11-05T17:43:01.487Z,9.82
2022-11-05T17:45:27.962Z,9.87
2022-11-05T17:47:54.610Z,9.87
2022-11-05T17:50:22.362Z,9.89
2022-11-05T17:52:48.782Z,9.84
2022-11-05T17:55:18.131Z,9.89
2022-11-05T17:57:49.618Z,9.87
2022-11-05T18:00:19.152Z,9.70
2022-11-05T18:02:47.226Z,9.83
2022-11-05T18:05:14.386Z,9.87
2022-11-05T18:07:41.081Z,9.87
2022-11-05T18:10:08.128Z,9.88
2022-11-05T18:12:34.712Z,9.87
2022-11-05T18:15:02.195Z,9.84
2022-11-05T18:17:28.589Z,9.84
2022-11-05T18:19:54.975Z,9.81
2022-11-05T18:22:23.026Z,9.84
2022-11-05T18:24:52.035Z,9.82
2022-11-05T18:27:18.519Z,9.83
2022-11-05T18:29:46.236Z,9.79
2022-11-05T18:32:12.802Z,9.83
2022-11-05T18:34:39.352Z,9.79
2022-11-05T18:37:05.727Z,9.72
2022-11-05T18:39:32.290Z,9.76
2022-11-05T18:41:58.729Z,9.75
2022-11-05T18:44:25.357Z,9.60
2022-11-05T18:46:57.779Z,9.81
2022-11-05T18:49:25.490Z,9.77
2022-11-05T18:51:51.988Z,9.79
2022-11-05T18:54:18.455Z,9.76
2022-11-05T18:56:45.677Z,9.77
2022-11-05T19:02:04.220Z,9.79
2022-11-05T19:04:30.771Z,9.77
2022-11-05T19:07:01.711Z,9.80
2022-11-05T19:09:31.373Z,9.83
2022-11-05T19:11:57.991Z,9.82
2022-11-05T19:14:24.462Z,9.79
2022-11-05T19:16:50.858Z,9.81
2022-11-05T19:19:17.365Z,9.79
2022-11-05T19:21:44.506Z,9.79
2022-11-05T19:24:16.862Z,9.84
2022-11-05T19:26:43.755Z,9.81
2022-11-05T19:29:10.834Z,9.82
2022-11-05T19:31:37.330Z,9.79
2022-11-05T19:34:05.502Z,9.83
2022-11-05T19:36:32.797Z,9.79
2022-11-05T19:39:04.753Z,9.82
2022-11-05T19:41:31.293Z,9.84
2022-11-05T19:44:01.739Z,9.79
2022-11-05T19:46:29.667Z,9.82
2022-11-05T19:48:56.730Z,9.78
2022-11-05T19:51:25.728Z,9.79
2022-11-05T19:53:53.146Z,9.77
2022-11-05T19:56:28.226Z,9.78
2022-11-05T19:58:54.709Z,9.77
2022-11-05T20:01:22.882Z,9.78
2022-11-05T20:03:49.492Z,9.76
2022-11-05T20:06:19.798Z,9.78
2022-11-05T20:09:19.835Z,9.64
2022-11-05T20:11:35.837Z,9.73
2022-11-05T20:14:02.454Z,9.76
2022-11-05T20:16:32.238Z,9.73
2022-11-05T20:18:58.649Z,9.71
2022-11-05T20:21:25.094Z,9.71
2022-11-05T20:23:51.540Z,9.70
2022-11-05T20:26:18.002Z,9.68
2022-11-05T20:28:44.826Z,9.71
2022-11-05T20:31:16.969Z,9.70
2022-11-05T20:33:44.876Z,9.70
2022-11-05T20:36:15.838Z,9.67
2022-11-05T20:38:44.240Z,9.67
2022-11-05T20:41:12.658Z,9.69
2022-11-05T20:43:44.186Z,9.69
2022-11-05T20:46:14.172Z,9.70
2022-11-05T20:48:41.434Z,9.72
2022-11-05T20:51:11.874Z,9.72
2022-11-05T20:53:38.655Z,9.71
2022-11-05T20:56:08.557Z,9.70
2022-11-05T20:58:37.246Z,9.74
2022-11-05T21:01:05.232Z,9.72
2022-11-05T21:03:32.046Z,9.70
2022-11-05T21:05:59.945Z,9.60
2022-11-05T21:08:27.970Z,9.70
2022-11-05T21:10:55.012Z,9.68
2022-11-05T21:13:22.231Z,9.68
2022-11-05T21:15:50.433Z,9.66
2022-11-05T21:18:21.106Z,9.67
2022-11-05T21:20:47.805Z,9.66
2022-11-05T21:23:15.489Z,9.61
2022-11-05T21:25:44.023Z,9.63
2022-11-05T21:28:12.398Z,9.61
2022-11-05T21:30:45.565Z,9.61
2022-11-05T21:33:16.226Z,9.62
2022-11-05T21:35:47.401Z,9.63
2022-11-05T21:38:16.504Z,9.63
2022-11-05T21:40:43.661Z,9.64
2022-11-05T21:43:10.456Z,9.65
2022-11-05T21:45:41.645Z,9.67
2022-11-05T21:48:08.922Z,9.66
2022-11-05T21:50:57.357Z,9.67
2022-11-05T21:53:42.775Z,9.68
2022-11-05T21:56:47.214Z,9.68
2022-11-05T21:59:35.037Z,9.68
2022-11-05T22:02:02.001Z,9.72
2022-11-05T22:04:33.990Z,9.72
2022-11-05T22:07:00.615Z,9.72
2022-11-05T22:09:27.558Z,9.72
2022-11-05T22:11:54.467Z,9.70
2022-11-05T22:14:21.101Z,9.71
2022-11-05T22:16:47.692Z,9.69
2022-11-05T22:19:14.365Z,9.67
2022-11-05T22:21:41.035Z,9.70
2022-11-05T22:24:08.143Z,9.68
2022-11-05T22:26:35.329Z,9.70
2022-11-05T22:29:01.774Z,9.71
2022-11-05T22:31:33.146Z,9.67
2022-11-05T22:34:02.338Z,9.70
2022-11-05T22:36:28.752Z,9.66
2022-11-05T22:38:55.184Z,9.60
2022-11-05T22:41:22.542Z,9.67
2022-11-05T22:43:49.496Z,9.71
2022-11-05T22:46:21.809Z,9.73
2022-11-05T22:48:49.068Z,9.72
2022-11-05T22:51:22.096Z,9.73
2022-11-05T22:53:49.032Z,9.71
2022-11-05T22:56:18.369Z,9.66
2022-11-05T22:58:45.064Z,9.71
2022-11-05T23:01:12.788Z,9.72
2022-11-05T23:03:41.715Z,9.72
2022-11-05T23:06:30.947Z,9.70
2022-11-05T23:09:16.601Z,9.67
2022-11-05T23:11:46.443Z,9.71
2022-11-05T23:14:14.456Z,9.67
2022-11-05T23:17:00.309Z,9.67
2022-11-05T23:19:45.615Z,9.66
2022-11-05T23:22:36.726Z,9.66
2022-11-05T23:25:04.813Z,9.65
2022-11-05T23:27:33.891Z,9.65
2022-11-05T23:30:02.075Z,9.65
2022-11-05T23:32:31.160Z,9.64
2022-11-05T23:34:59.167Z,9.61
2022-11-05T23:37:47.188Z,9.63
2022-11-05T23:40:18.366Z,9.62
2022-11-05T23:43:04.455Z,9.64
2022-11-05T23:45:50.868Z,9.65
2022-11-05T23:48:31.514Z,9.67
2022-11-05T23:51:10.600Z,9.66
2022-11-05T23:53:40.071Z,9.68
2022-11-05T23:56:14.027Z,9.64
2022-11-05T23:58:41.393Z,9.69
